Parent, Canada
Current Conditions -  °F | °C
As of 10:00 PM on Thursday 27 Nov 2014 (Local Time) from CYRJ Reporting Station
Few Clouds Few Clouds  
Wind Chill:   Ceiling: Unl
Heat Index: 10°   Visibility: 25mi
Dew Point:   Wind: 6mph
Humidity: 79%   Direction: 310°NW
Pressure: 30.08"   Gusts: NA
Location:  47.92°N, 74.62°W
Report Text: CYRJ 280300Z 31005KT 25SM FEW030 FEW220 M12/M15 A3008 RMK SC1CI1 SC TR SLP201
Loading
Personal Weather Stations






























Interactive Weather Map New forecast layout! Learn more

10-Day Weather Forecast

Advertisements
Track Severe Weather on mobile